sensor_id;sensor_type;location;lat;lon;timestamp;temperature;humidity
26954;DHT22;14508;50.924;11.600;2023-04-25T00:00:23;7.90;99.90
26954;DHT22;14508;50.924;11.600;2023-04-25T00:02:51;7.90;99.90
26954;DHT22;14508;50.924;11.600;2023-04-25T00:05:21;7.80;99.90
26954;DHT22;14508;50.924;11.600;2023-04-25T00:07:50;7.80;99.90
26954;DHT22;14508;50.924;11.600;2023-04-25T00:10:18;7.70;99.90
26954;DHT22;14508;50.924;11.600;2023-04-25T00:12:46;7.70;99.90
26954;DHT22;14508;50.924;11.600;2023-04-25T00:15:14;7.70;99.90
26954;DHT22;14508;50.924;11.600;2023-04-25T00:17:42;7.60;99.90
26954;DHT22;14508;50.924;11.600;2023-04-25T00:20:12;7.60;99.90
26954;DHT22;14508;50.924;11.600;2023-04-25T00:22:41;7.60;99.90
26954;DHT22;14508;50.924;11.600;2023-04-25T00:25:09;7.60;99.90
26954;DHT22;14508;50.924;11.600;2023-04-25T00:27:37;7.60;99.90
26954;DHT22;14508;50.924;11.600;2023-04-25T00:30:06;7.60;99.90
26954;DHT22;14508;50.924;11.600;2023-04-25T00:32:34;7.60;99.90
26954;DHT22;14508;50.924;11.600;2023-04-25T00:35:03;7.60;99.90
26954;DHT22;14508;50.924;11.600;2023-04-25T00:37:31;7.60;99.90
26954;DHT22;14508;50.924;11.600;2023-04-25T00:40:00;7.60;99.90
26954;DHT22;14508;50.924;11.600;2023-04-25T00:42:29;7.60;99.90
26954;DHT22;14508;50.924;11.600;2023-04-25T00:44:58;7.50;99.90
26954;DHT22;14508;50.924;11.600;2023-04-25T00:47:28;7.60;99.90
26954;DHT22;14508;50.924;11.600;2023-04-25T00:49:56;7.50;99.90
26954;DHT22;14508;50.924;11.600;2023-04-25T00:52:24;7.50;99.90
26954;DHT22;14508;50.924;11.600;2023-04-25T00:54:52;7.50;99.90
26954;DHT22;14508;50.924;11.600;2023-04-25T00:57:21;7.50;99.90
26954;DHT22;14508;50.924;11.600;2023-04-25T00:59:51;7.40;99.90
26954;DHT22;14508;50.924;11.600;2023-04-25T01:02:19;7.40;99.90
26954;DHT22;14508;50.924;11.600;2023-04-25T01:04:48;7.40;99.90
26954;DHT22;14508;50.924;11.600;2023-04-25T01:07:16;7.30;99.90
26954;DHT22;14508;50.924;11.600;2023-04-25T01:09:44;7.30;99.90
26954;DHT22;14508;50.924;11.600;2023-04-25T01:12:13;7.30;99.90
26954;DHT22;14508;50.924;11.600;2023-04-25T01:14:42;7.20;99.90
26954;DHT22;14508;50.924;11.600;2023-04-25T01:17:11;7.20;99.90
26954;DHT22;14508;50.924;11.600;2023-04-25T01:19:39;7.20;99.90
26954;DHT22;14508;50.924;11.600;2023-04-25T01:22:08;7.10;99.90
26954;DHT22;14508;50.924;11.600;2023-04-25T01:24:37;7.10;99.90
26954;DHT22;14508;50.924;11.600;2023-04-25T01:27:05;7.00;99.90
26954;DHT22;14508;50.924;11.600;2023-04-25T01:29:35;7.00;99.90
26954;DHT22;14508;50.924;11.600;2023-04-25T01:32:04;6.90;99.90
26954;DHT22;14508;50.924;11.600;2023-04-25T01:34:32;6.90;99.90
26954;DHT22;14508;50.924;11.600;2023-04-25T01:37:00;6.80;99.90
26954;DHT22;14508;50.924;11.600;2023-04-25T01:39:29;6.80;99.90
26954;DHT22;14508;50.924;11.600;2023-04-25T01:41:59;6.80;99.90
26954;DHT22;14508;50.924;11.600;2023-04-25T01:44:29;6.70;99.90
26954;DHT22;14508;50.924;11.600;2023-04-25T01:46:57;6.80;99.90
26954;DHT22;14508;50.924;11.600;2023-04-25T01:49:25;6.70;99.90
26954;DHT22;14508;50.924;11.600;2023-04-25T01:51:53;6.70;99.90
26954;DHT22;14508;50.924;11.600;2023-04-25T01:54:21;6.60;99.90
26954;DHT22;14508;50.924;11.600;2023-04-25T01:56:51;6.70;99.90
26954;DHT22;14508;50.924;11.600;2023-04-25T01:59:21;6.70;99.90
26954;DHT22;14508;50.924;11.600;2023-04-25T02:01:59;6.70;99.90
26954;DHT22;14508;50.924;11.600;2023-04-25T02:04:32;6.70;99.90
26954;DHT22;14508;50.924;11.600;2023-04-25T02:07:01;6.70;99.90
26954;DHT22;14508;50.924;11.600;2023-04-25T02:09:38;6.70;99.90
26954;DHT22;14508;50.924;11.600;2023-04-25T02:12:09;6.60;99.90
26954;DHT22;14508;50.924;11.600;2023-04-25T02:14:56;6.60;99.90
26954;DHT22;14508;50.924;11.600;2023-04-25T02:17:44;6.60;99.90
26954;DHT22;14508;50.924;11.600;2023-04-25T02:20:13;6.60;99.90
26954;DHT22;14508;50.924;11.600;2023-04-25T02:22:42;6.60;99.90
26954;DHT22;14508;50.924;11.600;2023-04-25T02:25:11;6.60;99.90
26954;DHT22;14508;50.924;11.600;2023-04-25T02:27:41;6.60;99.90
26954;DHT22;14508;50.924;11.600;2023-04-25T02:30:10;6.60;99.90
26954;DHT22;14508;50.924;11.600;2023-04-25T02:32:38;6.60;99.90
26954;DHT22;14508;50.924;11.600;2023-04-25T02:35:09;6.50;99.90
26954;DHT22;14508;50.924;11.600;2023-04-25T02:37:38;6.50;99.90
26954;DHT22;14508;50.924;11.600;2023-04-25T02:40:07;6.50;99.90
26954;DHT22;14508;50.924;11.600;2023-04-25T02:42:35;6.50;99.90
26954;DHT22;14508;50.924;11.600;2023-04-25T02:45:05;6.40;99.90
26954;DHT22;14508;50.924;11.600;2023-04-25T02:47:34;6.50;99.90
26954;DHT22;14508;50.924;11.600;2023-04-25T02:50:02;6.50;99.90
26954;DHT22;14508;50.924;11.600;2023-04-25T02:52:30;6.40;99.90
26954;DHT22;14508;50.924;11.600;2023-04-25T02:55:08;6.40;99.90
26954;DHT22;14508;50.924;11.600;2023-04-25T02:57:37;6.40;99.90
26954;DHT22;14508;50.924;11.600;2023-04-25T03:00:08;6.40;99.90
26954;DHT22;14508;50.924;11.600;2023-04-25T03:02:38;6.40;99.90
26954;DHT22;14508;50.924;11.600;2023-04-25T03:05:06;6.40;99.90
26954;DHT22;14508;50.924;11.600;2023-04-25T03:07:35;6.30;99.90
26954;DHT22;14508;50.924;11.600;2023-04-25T03:10:03;6.30;99.90
26954;DHT22;14508;50.924;11.600;2023-04-25T03:12:33;6.30;99.90
26954;DHT22;14508;50.924;11.600;2023-04-25T03:15:04;6.30;99.90
26954;DHT22;14508;50.924;11.600;2023-04-25T03:17:33;6.30;99.90
26954;DHT22;14508;50.924;11.600;2023-04-25T03:20:02;6.20;99.90
26954;DHT22;14508;50.924;11.600;2023-04-25T03:22:32;6.30;99.90
26954;DHT22;14508;50.924;11.600;2023-04-25T03:25:00;6.30;99.90
26954;DHT22;14508;50.924;11.600;2023-04-25T03:27:28;6.30;99.90
26954;DHT22;14508;50.924;11.600;2023-04-25T03:29:56;6.40;99.90
26954;DHT22;14508;50.924;11.600;2023-04-25T03:32:24;6.50;99.90
26954;DHT22;14508;50.924;11.600;2023-04-25T03:34:54;6.50;99.90
26954;DHT22;14508;50.924;11.600;2023-04-25T03:37:24;6.60;99.90
26954;DHT22;14508;50.924;11.600;2023-04-25T03:39:53;6.70;99.90
26954;DHT22;14508;50.924;11.600;2023-04-25T03:42:23;6.70;99.90
26954;DHT22;14508;50.924;11.600;2023-04-25T03:44:52;6.80;99.90
26954;DHT22;14508;50.924;11.600;2023-04-25T03:47:20;6.80;99.90
26954;DHT22;14508;50.924;11.600;2023-04-25T03:49:49;6.80;99.90
26954;DHT22;14508;50.924;11.600;2023-04-25T03:52:23;6.80;99.90
26954;DHT22;14508;50.924;11.600;2023-04-25T03:54:52;6.80;99.90
26954;DHT22;14508;50.924;11.600;2023-04-25T03:57:22;6.80;99.90
26954;DHT22;14508;50.924;11.600;2023-04-25T03:59:52;6.80;99.90
26954;DHT22;14508;50.924;11.600;2023-04-25T04:02:20;6.80;99.90
26954;DHT22;14508;50.924;11.600;2023-04-25T04:04:51;6.70;99.90
26954;DHT22;14508;50.924;11.600;2023-04-25T04:07:20;6.70;99.90
26954;DHT22;14508;50.924;11.600;2023-04-25T04:09:54;6.70;99.90
26954;DHT22;14508;50.924;11.600;2023-04-25T04:12:27;6.70;99.90
26954;DHT22;14508;50.924;11.600;2023-04-25T04:14:55;6.60;99.90
26954;DHT22;14508;50.924;11.600;2023-04-25T04:17:23;6.60;99.90
26954;DHT22;14508;50.924;11.600;2023-04-25T04:19:52;6.60;99.90
26954;DHT22;14508;50.924;11.600;2023-04-25T04:22:20;6.60;99.90
26954;DHT22;14508;50.924;11.600;2023-04-25T04:24:48;6.60;99.90
26954;DHT22;14508;50.924;11.600;2023-04-25T04:27:23;6.60;99.90
26954;DHT22;14508;50.924;11.600;2023-04-25T04:30:07;6.70;99.90
26954;DHT22;14508;50.924;11.600;2023-04-25T04:32:50;6.70;99.90
26954;DHT22;14508;50.924;11.600;2023-04-25T04:35:18;6.70;99.90
26954;DHT22;14508;50.924;11.600;2023-04-25T04:37:47;6.70;99.90
26954;DHT22;14508;50.924;11.600;2023-04-25T04:40:18;6.60;99.90
26954;DHT22;14508;50.924;11.600;2023-04-25T04:42:54;6.60;99.90
26954;DHT22;14508;50.924;11.600;2023-04-25T04:45:46;6.60;99.90
26954;DHT22;14508;50.924;11.600;2023-04-25T04:48:31;6.60;99.90
26954;DHT22;14508;50.924;11.600;2023-04-25T04:51:17;6.60;99.90
26954;DHT22;14508;50.924;11.600;2023-04-25T04:53:47;6.60;99.90
26954;DHT22;14508;50.924;11.600;2023-04-25T04:56:36;6.70;99.90
26954;DHT22;14508;50.924;11.600;2023-04-25T04:59:24;6.70;99.90
26954;DHT22;14508;50.924;11.600;2023-04-25T05:02:10;6.60;99.90
26954;DHT22;14508;50.924;11.600;2023-04-25T05:04:56;6.70;99.90
26954;DHT22;14508;50.924;11.600;2023-04-25T05:07:43;6.70;99.90
26954;DHT22;14508;50.924;11.600;2023-04-25T05:10:25;6.80;99.90
26954;DHT22;14508;50.924;11.600;2023-04-25T05:12:56;6.80;99.90
26954;DHT22;14508;50.924;11.600;2023-04-25T05:15:25;6.90;99.90
26954;DHT22;14508;50.924;11.600;2023-04-25T05:18:11;6.90;99.90
26954;DHT22;14508;50.924;11.600;2023-04-25T05:21:05;6.90;99.90
26954;DHT22;14508;50.924;11.600;2023-04-25T05:23:42;7.00;99.90
26954;DHT22;14508;50.924;11.600;2023-04-25T05:26:30;7.10;99.90
26954;DHT22;14508;50.924;11.600;2023-04-25T05:29:22;7.20;99.90
26954;DHT22;14508;50.924;11.600;2023-04-25T05:32:10;7.30;99.90
26954;DHT22;14508;50.924;11.600;2023-04-25T05:34:38;7.40;99.90
26954;DHT22;14508;50.924;11.600;2023-04-25T05:37:15;7.50;99.90
26954;DHT22;14508;50.924;11.600;2023-04-25T05:39:53;7.70;99.90
26954;DHT22;14508;50.924;11.600;2023-04-25T05:42:39;7.80;99.90
26954;DHT22;14508;50.924;11.600;2023-04-25T05:45:26;8.00;99.90
26954;DHT22;14508;50.924;11.600;2023-04-25T05:48:04;8.10;99.90
26954;DHT22;14508;50.924;11.600;2023-04-25T05:50:56;8.20;99.90
26954;DHT22;14508;50.924;11.600;2023-04-25T05:53:40;8.30;99.90
26954;DHT22;14508;50.924;11.600;2023-04-25T05:56:08;8.40;99.90
26954;DHT22;14508;50.924;11.600;2023-04-25T05:58:36;8.50;99.90
26954;DHT22;14508;50.924;11.600;2023-04-25T06:01:04;8.60;99.90
26954;DHT22;14508;50.924;11.600;2023-04-25T06:03:34;8.60;99.90
26954;DHT22;14508;50.924;11.600;2023-04-25T06:06:05;8.70;99.90
26954;DHT22;14508;50.924;11.600;2023-04-25T06:08:33;8.80;99.90
26954;DHT22;14508;50.924;11.600;2023-04-25T06:11:02;9.00;99.90
26954;DHT22;14508;50.924;11.600;2023-04-25T06:13:30;9.10;99.90
26954;DHT22;14508;50.924;11.600;2023-04-25T06:15:58;9.20;99.90
26954;DHT22;14508;50.924;11.600;2023-04-25T06:18:27;9.10;99.10
26954;DHT22;14508;50.924;11.600;2023-04-25T06:20:56;9.10;98.20
26954;DHT22;14508;50.924;11.600;2023-04-25T06:23:25;9.10;97.00
26954;DHT22;14508;50.924;11.600;2023-04-25T06:26:00;9.00;96.60
26954;DHT22;14508;50.924;11.600;2023-04-25T06:28:29;9.00;95.40
26954;DHT22;14508;50.924;11.600;2023-04-25T06:30:58;8.90;96.00
26954;DHT22;14508;50.924;11.600;2023-04-25T06:33:26;9.00;95.90
26954;DHT22;14508;50.924;11.600;2023-04-25T06:35:57;9.10;95.10
26954;DHT22;14508;50.924;11.600;2023-04-25T06:38:26;9.30;94.90
26954;DHT22;14508;50.924;11.600;2023-04-25T06:40:56;9.40;94.90
26954;DHT22;14508;50.924;11.600;2023-04-25T06:43:27;9.40;94.60
26954;DHT22;14508;50.924;11.600;2023-04-25T06:46:23;9.40;93.80
26954;DHT22;14508;50.924;11.600;2023-04-25T06:48:51;9.50;93.90
26954;DHT22;14508;50.924;11.600;2023-04-25T06:51:20;9.60;93.90
26954;DHT22;14508;50.924;11.600;2023-04-25T06:53:52;9.60;93.90
26954;DHT22;14508;50.924;11.600;2023-04-25T06:56:37;9.50;93.70
26954;DHT22;14508;50.924;11.600;2023-04-25T06:59:10;9.60;93.70
26954;DHT22;14508;50.924;11.600;2023-04-25T07:01:40;9.50;94.10
26954;DHT22;14508;50.924;11.600;2023-04-25T07:04:14;9.50;94.60
26954;DHT22;14508;50.924;11.600;2023-04-25T07:06:51;9.50;94.90
26954;DHT22;14508;50.924;11.600;2023-04-25T07:09:26;9.50;95.00
26954;DHT22;14508;50.924;11.600;2023-04-25T07:11:55;9.50;94.60
26954;DHT22;14508;50.924;11.600;2023-04-25T07:14:23;9.40;94.50
26954;DHT22;14508;50.924;11.600;2023-04-25T07:16:51;9.40;95.30
26954;DHT22;14508;50.924;11.600;2023-04-25T07:19:19;9.30;95.50
26954;DHT22;14508;50.924;11.600;2023-04-25T07:21:48;9.20;96.00
26954;DHT22;14508;50.924;11.600;2023-04-25T07:24:21;9.20;97.20
26954;DHT22;14508;50.924;11.600;2023-04-25T07:26:51;9.30;97.40
26954;DHT22;14508;50.924;11.600;2023-04-25T07:29:51;9.40;96.90
26954;DHT22;14508;50.924;11.600;2023-04-25T07:32:22;9.50;97.10
26954;DHT22;14508;50.924;11.600;2023-04-25T07:34:50;9.50;96.10
26954;DHT22;14508;50.924;11.600;2023-04-25T07:37:18;9.40;96.20
26954;DHT22;14508;50.924;11.600;2023-04-25T07:40:01;9.50;96.80
26954;DHT22;14508;50.924;11.600;2023-04-25T07:42:30;9.50;97.10
26954;DHT22;14508;50.924;11.600;2023-04-25T07:44:59;9.50;96.70
26954;DHT22;14508;50.924;11.600;2023-04-25T07:47:28;9.60;96.70
26954;DHT22;14508;50.924;11.600;2023-04-25T07:49:57;9.60;95.70
26954;DHT22;14508;50.924;11.600;2023-04-25T07:52:25;9.50;95.10
26954;DHT22;14508;50.924;11.600;2023-04-25T07:55:02;9.40;95.60
26954;DHT22;14508;50.924;11.600;2023-04-25T07:57:40;9.40;96.90
26954;DHT22;14508;50.924;11.600;2023-04-25T08:00:10;9.30;96.10
26954;DHT22;14508;50.924;11.600;2023-04-25T08:02:46;9.30;96.70
26954;DHT22;14508;50.924;11.600;2023-04-25T08:05:16;9.40;96.50
26954;DHT22;14508;50.924;11.600;2023-04-25T08:07:53;9.60;96.80
26954;DHT22;14508;50.924;11.600;2023-04-25T08:10:23;9.80;95.20
26954;DHT22;14508;50.924;11.600;2023-04-25T08:12:52;9.90;95.40
26954;DHT22;14508;50.924;11.600;2023-04-25T08:15:20;9.80;93.80
26954;DHT22;14508;50.924;11.600;2023-04-25T08:17:48;9.80;93.50
26954;DHT22;14508;50.924;11.600;2023-04-25T08:20:16;9.90;92.90
26954;DHT22;14508;50.924;11.600;2023-04-25T08:22:45;9.90;92.90
26954;DHT22;14508;50.924;11.600;2023-04-25T08:25:28;9.80;93.10
26954;DHT22;14508;50.924;11.600;2023-04-25T08:27:56;9.80;92.70
26954;DHT22;14508;50.924;11.600;2023-04-25T08:30:26;9.80;93.40
26954;DHT22;14508;50.924;11.600;2023-04-25T08:32:54;9.70;92.90
26954;DHT22;14508;50.924;11.600;2023-04-25T08:35:33;9.60;93.40
26954;DHT22;14508;50.924;11.600;2023-04-25T08:38:01;9.50;94.30
26954;DHT22;14508;50.924;11.600;2023-04-25T08:40:37;9.50;95.40
26954;DHT22;14508;50.924;11.600;2023-04-25T08:43:13;9.50;95.00
26954;DHT22;14508;50.924;11.600;2023-04-25T08:45:42;9.50;95.50
26954;DHT22;14508;50.924;11.600;2023-04-25T08:48:17;9.50;95.50
26954;DHT22;14508;50.924;11.600;2023-04-25T08:50:48;9.50;95.70
26954;DHT22;14508;50.924;11.600;2023-04-25T08:53:22;9.50;95.50
26954;DHT22;14508;50.924;11.600;2023-04-25T08:55:54;9.50;96.30
26954;DHT22;14508;50.924;11.600;2023-04-25T08:58:23;9.50;95.40
26954;DHT22;14508;50.924;11.600;2023-04-25T09:00:52;9.40;95.60
26954;DHT22;14508;50.924;11.600;2023-04-25T09:03:23;9.40;96.80
26954;DHT22;14508;50.924;11.600;2023-04-25T09:05:51;9.40;97.00
26954;DHT22;14508;50.924;11.600;2023-04-25T09:08:20;9.40;97.50
26954;DHT22;14508;50.924;11.600;2023-04-25T09:10:48;9.50;98.30
26954;DHT22;14508;50.924;11.600;2023-04-25T09:13:25;9.40;97.60
26954;DHT22;14508;50.924;11.600;2023-04-25T09:16:18;9.50;97.50
26954;DHT22;14508;50.924;11.600;2023-04-25T09:19:10;9.80;98.10
26954;DHT22;14508;50.924;11.600;2023-04-25T09:22:05;10.10;96.50
26954;DHT22;14508;50.924;11.600;2023-04-25T09:24:36;10.50;95.60
26954;DHT22;14508;50.924;11.600;2023-04-25T09:27:05;10.60;94.40
26954;DHT22;14508;50.924;11.600;2023-04-25T09:29:35;10.70;94.90
26954;DHT22;14508;50.924;11.600;2023-04-25T09:32:12;10.70;93.20
26954;DHT22;14508;50.924;11.600;2023-04-25T09:34:41;10.60;92.80
26954;DHT22;14508;50.924;11.600;2023-04-25T09:37:11;10.60;92.80
26954;DHT22;14508;50.924;11.600;2023-04-25T09:40:05;10.70;93.40
26954;DHT22;14508;50.924;11.600;2023-04-25T09:42:50;10.90;92.50
26954;DHT22;14508;50.924;11.600;2023-04-25T09:45:19;11.20;91.90
26954;DHT22;14508;50.924;11.600;2023-04-25T09:47:49;11.50;90.60
26954;DHT22;14508;50.924;11.600;2023-04-25T09:50:28;11.60;90.00
26954;DHT22;14508;50.924;11.600;2023-04-25T09:53:05;11.70;89.20
26954;DHT22;14508;50.924;11.600;2023-04-25T09:56:04;11.70;88.00
26954;DHT22;14508;50.924;11.600;2023-04-25T09:58:34;11.60;86.40
26954;DHT22;14508;50.924;11.600;2023-04-25T10:01:06;11.40;86.90
26954;DHT22;14508;50.924;11.600;2023-04-25T10:03:47;11.20;86.70
26954;DHT22;14508;50.924;11.600;2023-04-25T10:06:30;11.10;87.20
26954;DHT22;14508;50.924;11.600;2023-04-25T10:09:01;10.90;88.90
26954;DHT22;14508;50.924;11.600;2023-04-25T10:11:31;10.60;90.90
26954;DHT22;14508;50.924;11.600;2023-04-25T10:14:00;10.30;94.10
26954;DHT22;14508;50.924;11.600;2023-04-25T10:16:30;9.90;97.30
26954;DHT22;14508;50.924;11.600;2023-04-25T10:18:58;9.80;99.90
26954;DHT22;14508;50.924;11.600;2023-04-25T10:21:27;9.70;99.90
26954;DHT22;14508;50.924;11.600;2023-04-25T10:24:05;9.70;99.90
26954;DHT22;14508;50.924;11.600;2023-04-25T10:26:33;9.80;99.90
26954;DHT22;14508;50.924;11.600;2023-04-25T10:29:03;9.80;99.90
26954;DHT22;14508;50.924;11.600;2023-04-25T10:31:45;9.80;99.90
26954;DHT22;14508;50.924;11.600;2023-04-25T10:34:13;10.00;99.90
26954;DHT22;14508;50.924;11.600;2023-04-25T10:36:41;10.10;99.90
26954;DHT22;14508;50.924;11.600;2023-04-25T10:39:09;10.30;99.90
26954;DHT22;14508;50.924;11.600;2023-04-25T10:41:47;10.50;99.90
26954;DHT22;14508;50.924;11.600;2023-04-25T10:44:15;10.60;99.50
26954;DHT22;14508;50.924;11.600;2023-04-25T10:46:45;10.70;96.50
26954;DHT22;14508;50.924;11.600;2023-04-25T10:49:29;10.90;95.60
26954;DHT22;14508;50.924;11.600;2023-04-25T10:52:17;11.20;97.00
26954;DHT22;14508;50.924;11.600;2023-04-25T10:54:51;11.30;92.40
26954;DHT22;14508;50.924;11.600;2023-04-25T10:57:35;11.50;91.30
26954;DHT22;14508;50.924;11.600;2023-04-25T11:00:12;11.80;86.20
26954;DHT22;14508;50.924;11.600;2023-04-25T11:02:44;11.90;82.90
26954;DHT22;14508;50.924;11.600;2023-04-25T11:05:22;11.90;74.80
26954;DHT22;14508;50.924;11.600;2023-04-25T11:07:52;12.00;72.10
26954;DHT22;14508;50.924;11.600;2023-04-25T11:10:34;12.00;72.40
26954;DHT22;14508;50.924;11.600;2023-04-25T11:13:03;12.20;70.30
26954;DHT22;14508;50.924;11.600;2023-04-25T11:15:31;12.30;62.50
26954;DHT22;14508;50.924;11.600;2023-04-25T11:18:00;12.10;58.90
26954;DHT22;14508;50.924;11.600;2023-04-25T11:20:28;11.60;58.70
26954;DHT22;14508;50.924;11.600;2023-04-25T11:22:58;11.50;59.70
26954;DHT22;14508;50.924;11.600;2023-04-25T11:25:27;11.60;60.50
26954;DHT22;14508;50.924;11.600;2023-04-25T11:27:58;11.70;60.30
26954;DHT22;14508;50.924;11.600;2023-04-25T11:30:28;11.80;61.70
26954;DHT22;14508;50.924;11.600;2023-04-25T11:32:57;12.00;61.80
26954;DHT22;14508;50.924;11.600;2023-04-25T11:35:27;12.10;60.20
26954;DHT22;14508;50.924;11.600;2023-04-25T11:37:54;12.10;58.70
26954;DHT22;14508;50.924;11.600;2023-04-25T11:40:22;12.10;59.40
26954;DHT22;14508;50.924;11.600;2023-04-25T11:42:50;11.80;59.60
26954;DHT22;14508;50.924;11.600;2023-04-25T11:45:22;11.70;59.90
26954;DHT22;14508;50.924;11.600;2023-04-25T11:47:51;11.80;59.10
26954;DHT22;14508;50.924;11.600;2023-04-25T11:50:19;11.70;59.80
26954;DHT22;14508;50.924;11.600;2023-04-25T11:52:49;11.70;59.60
26954;DHT22;14508;50.924;11.600;2023-04-25T11:55:19;11.80;58.60
26954;DHT22;14508;50.924;11.600;2023-04-25T11:57:48;11.90;58.80
26954;DHT22;14508;50.924;11.600;2023-04-25T12:00:19;12.00;58.20
26954;DHT22;14508;50.924;11.600;2023-04-25T12:02:50;12.00;57.50
26954;DHT22;14508;50.924;11.600;2023-04-25T12:05:19;12.20;57.10
26954;DHT22;14508;50.924;11.600;2023-04-25T12:08:09;12.40;55.80
26954;DHT22;14508;50.924;11.600;2023-04-25T12:10:38;12.50;56.50
26954;DHT22;14508;50.924;11.600;2023-04-25T12:13:21;12.70;55.80
26954;DHT22;14508;50.924;11.600;2023-04-25T12:15:49;12.90;55.60
26954;DHT22;14508;50.924;11.600;2023-04-25T12:18:19;12.80;55.10
26954;DHT22;14508;50.924;11.600;2023-04-25T12:20:48;12.80;54.90
26954;DHT22;14508;50.924;11.600;2023-04-25T12:23:17;12.80;55.30
26954;DHT22;14508;50.924;11.600;2023-04-25T12:25:52;12.90;55.60
26954;DHT22;14508;50.924;11.600;2023-04-25T12:28:21;13.10;55.00
26954;DHT22;14508;50.924;11.600;2023-04-25T12:30:55;13.10;54.60
26954;DHT22;14508;50.924;11.600;2023-04-25T12:33:24;13.30;54.60
26954;DHT22;14508;50.924;11.600;2023-04-25T12:35:52;13.30;54.60
26954;DHT22;14508;50.924;11.600;2023-04-25T12:38:23;13.30;54.30
26954;DHT22;14508;50.924;11.600;2023-04-25T12:40:51;13.10;54.80
26954;DHT22;14508;50.924;11.600;2023-04-25T12:43:19;12.90;55.70
26954;DHT22;14508;50.924;11.600;2023-04-25T12:45:49;12.60;56.20
26954;DHT22;14508;50.924;11.600;2023-04-25T12:48:17;12.30;56.90
26954;DHT22;14508;50.924;11.600;2023-04-25T12:50:46;12.00;56.00
26954;DHT22;14508;50.924;11.600;2023-04-25T12:53:15;11.60;55.80
26954;DHT22;14508;50.924;11.600;2023-04-25T12:55:45;11.30;55.00
26954;DHT22;14508;50.924;11.600;2023-04-25T12:58:14;11.10;55.10
26954;DHT22;14508;50.924;11.600;2023-04-25T13:00:42;11.00;56.80
26954;DHT22;14508;50.924;11.600;2023-04-25T13:03:10;11.00;57.20
26954;DHT22;14508;50.924;11.600;2023-04-25T13:05:39;11.10;57.10
26954;DHT22;14508;50.924;11.600;2023-04-25T13:08:08;11.40;56.40
26954;DHT22;14508;50.924;11.600;2023-04-25T13:10:35;11.60;55.20
26954;DHT22;14508;50.924;11.600;2023-04-25T13:13:07;11.90;54.70
26954;DHT22;14508;50.924;11.600;2023-04-25T13:15:35;11.90;53.80
26954;DHT22;14508;50.924;11.600;2023-04-25T13:18:03;12.00;53.70
26954;DHT22;14508;50.924;11.600;2023-04-25T13:20:32;12.00;52.70
26954;DHT22;14508;50.924;11.600;2023-04-25T13:23:00;12.00;52.10
26954;DHT22;14508;50.924;11.600;2023-04-25T13:25:29;11.80;51.40
26954;DHT22;14508;50.924;11.600;2023-04-25T13:27:57;11.70;51.90
26954;DHT22;14508;50.924;11.600;2023-04-25T13:30:27;11.80;52.40
26954;DHT22;14508;50.924;11.600;2023-04-25T13:32:54;12.00;52.60
26954;DHT22;14508;50.924;11.600;2023-04-25T13:35:24;12.30;52.60
26954;DHT22;14508;50.924;11.600;2023-04-25T13:37:52;12.50;52.00
26954;DHT22;14508;50.924;11.600;2023-04-25T13:40:20;12.60;49.50
26954;DHT22;14508;50.924;11.600;2023-04-25T13:42:51;12.60;49.70
26954;DHT22;14508;50.924;11.600;2023-04-25T13:45:19;12.70;48.80
26954;DHT22;14508;50.924;11.600;2023-04-25T13:47:50;12.90;48.00
26954;DHT22;14508;50.924;11.600;2023-04-25T13:50:18;13.10;47.50
26954;DHT22;14508;50.924;11.600;2023-04-25T13:52:47;13.40;45.80
26954;DHT22;14508;50.924;11.600;2023-04-25T13:55:15;13.50;44.50
26954;DHT22;14508;50.924;11.600;2023-04-25T13:57:43;13.30;43.20
26954;DHT22;14508;50.924;11.600;2023-04-25T14:00:12;13.20;43.30
26954;DHT22;14508;50.924;11.600;2023-04-25T14:02:40;13.00;44.30
26954;DHT22;14508;50.924;11.600;2023-04-25T14:05:10;13.00;45.10
26954;DHT22;14508;50.924;11.600;2023-04-25T14:07:58;13.00;45.20
26954;DHT22;14508;50.924;11.600;2023-04-25T14:10:28;12.80;46.10
26954;DHT22;14508;50.924;11.600;2023-04-25T14:12:55;12.70;46.60
26954;DHT22;14508;50.924;11.600;2023-04-25T14:15:24;12.50;46.90
26954;DHT22;14508;50.924;11.600;2023-04-25T14:17:52;12.50;46.80
26954;DHT22;14508;50.924;11.600;2023-04-25T14:20:21;12.50;46.40
26954;DHT22;14508;50.924;11.600;2023-04-25T14:22:50;12.60;46.60
26954;DHT22;14508;50.924;11.600;2023-04-25T14:25:18;12.80;46.10
26954;DHT22;14508;50.924;11.600;2023-04-25T14:27:47;12.80;46.10
26954;DHT22;14508;50.924;11.600;2023-04-25T14:30:16;12.70;45.90
26954;DHT22;14508;50.924;11.600;2023-04-25T14:32:44;12.80;45.50
26954;DHT22;14508;50.924;11.600;2023-04-25T14:35:13;12.90;45.00
26954;DHT22;14508;50.924;11.600;2023-04-25T14:37:42;12.90;45.10
26954;DHT22;14508;50.924;11.600;2023-04-25T14:40:11;13.00;44.50
26954;DHT22;14508;50.924;11.600;2023-04-25T14:42:40;12.90;44.10
26954;DHT22;14508;50.924;11.600;2023-04-25T14:45:09;12.80;44.40
26954;DHT22;14508;50.924;11.600;2023-04-25T14:47:37;12.80;44.20
26954;DHT22;14508;50.924;11.600;2023-04-25T14:50:05;12.70;44.00
26954;DHT22;14508;50.924;11.600;2023-04-25T14:52:33;12.70;44.50
26954;DHT22;14508;50.924;11.600;2023-04-25T14:55:03;12.90;44.30
26954;DHT22;14508;50.924;11.600;2023-04-25T14:57:32;13.00;44.50
26954;DHT22;14508;50.924;11.600;2023-04-25T15:00:00;13.10;44.20
26954;DHT22;14508;50.924;11.600;2023-04-25T15:02:31;13.00;44.50
26954;DHT22;14508;50.924;11.600;2023-04-25T15:04:59;12.80;45.30
26954;DHT22;14508;50.924;11.600;2023-04-25T15:07:28;12.60;45.90
26954;DHT22;14508;50.924;11.600;2023-04-25T15:09:55;12.60;46.10
26954;DHT22;14508;50.924;11.600;2023-04-25T15:12:25;12.50;46.50
26954;DHT22;14508;50.924;11.600;2023-04-25T15:14:54;12.60;47.10
26954;DHT22;14508;50.924;11.600;2023-04-25T15:17:22;12.50;46.90
26954;DHT22;14508;50.924;11.600;2023-04-25T15:19:50;12.60;47.20
26954;DHT22;14508;50.924;11.600;2023-04-25T15:22:18;12.50;46.80
26954;DHT22;14508;50.924;11.600;2023-04-25T15:24:46;12.50;47.00
26954;DHT22;14508;50.924;11.600;2023-04-25T15:27:14;12.50;47.20
26954;DHT22;14508;50.924;11.600;2023-04-25T15:29:43;12.50;47.30
26954;DHT22;14508;50.924;11.600;2023-04-25T15:32:11;12.60;47.40
26954;DHT22;14508;50.924;11.600;2023-04-25T15:34:39;12.60;47.20
26954;DHT22;14508;50.924;11.600;2023-04-25T15:37:07;12.50;46.60
26954;DHT22;14508;50.924;11.600;2023-04-25T15:39:35;12.50;46.10
26954;DHT22;14508;50.924;11.600;2023-04-25T15:42:03;12.50;46.20
26954;DHT22;14508;50.924;11.600;2023-04-25T15:44:30;12.40;45.90
26954;DHT22;14508;50.924;11.600;2023-04-25T15:47:00;12.30;46.10
26954;DHT22;14508;50.924;11.600;2023-04-25T15:49:27;12.30;45.80
26954;DHT22;14508;50.924;11.600;2023-04-25T15:51:56;12.10;46.00